ADVERTISEMENT

iOS app on App Store Android app on Google Play

2018 \ Turkey Trot LA - November 22, 2018

Notes Pages Download Filter By
  1 2 3 4 5 6 7 8 9 10 11 12 13 [14] 15 16 17 18 19 20 21 22 23 24 25 26 27 28 29 30




Keyword Exact  
Division

Bib First Name Last Name City State Total Time Division Division Place Overall
898 Joy Turner Los Angeles CA 00:35:17 30-34 F 135 1301
3940 Andrea Zanetti Los Angeles CA 00:35:17 35-39 M 85 1302
3389 Diana Elizondo Glendale CA 00:35:19 45-49 F 46 1303
4962 Molly Katz Los Angeles CA 00:35:19 25-29 F 108 1304
3323 Anne Carol Elder -- 00:35:22 30-34 F 136 1305
2607 DIANA STOVEL Corona CA 00:35:23 35-39 F 83 1306
839 Deb Fort Hawthorne CA 00:35:23 55-59 F 12 1307
4105 Silvia Chavez Los Angeles CA 00:35:24 30-34 F 137 1308
5251 jessica miranda Los Angeles CA 00:35:24 25-29 F 109 1309
837 Mary K Balding Redondo Beach CA 00:35:24 50-54 F 30 1310
3802 Maria Rejano Gumbau Lagrangeville NY 00:35:24 25-29 F 110 1311
3267 Patricia Flor Arasil Lagrangeville NY 00:35:25 25-29 F 111 1312
4533 sophie katz Seattle WA 00:35:27 20-24 F 65 1313
4551 Elizabeth Galang Los Angeles CA 00:35:27 30-34 F 138 1314
3663 Marisol Guzman Newhall CA 00:35:27 25-29 F 112 1315
3169 Vanessa Santi Chicago IL 00:35:28 45-49 F 47 1316
3184 Cecilia Lopez Los Angeles CA 00:35:30 30-34 F 139 1317
2872 Kaelyn Vought Valencia CA 00:35:31 14-15 F 15 1318
3183 Edwin Rivas Los Angeles CA 00:35:31 30-34 M 112 1319
2916 Rosalind Jarrett Sepulveda Los Angeles CA 00:35:33 70-99 F 2 1320
5118 Mariana Edwards Pico Rivera CA 00:35:33 25-29 F 113 1321
3796 Caroline Roque Los Angeles CA 00:35:35 16-19 F 26 1322
5300 Carmen Mora Huntington Park CA 00:35:36 35-39 F 84 1323
2357 julia sourfazian North Hollywood CA 00:35:36 20-24 F 66 1324
4670 Gustavo Zetino Los Angeles CA 00:35:40 50-54 M 43 1325
2021 Ad Encinas Bellflower CA 00:35:41 30-34 M 113 1326
4554 Gabrielle Zetino Los Angeles CA 00:35:41 20-24 F 67 1327
3090 Martin Felsenthal San Francisco CA 00:35:41 45-49 M 57 1328
2230 Joanne Terrell Tuscaloosa AL 00:35:42 65-69 F 3 1329
2242 Eric Rodriguez Rialto CA 00:35:43 20-24 M 50 1330
2241 Kenya Staley San Bernardino CA 00:35:44 20-24 F 68 1331
3747 Jennifer Majaba Los Angeles CA 00:35:45 40-44 F 57 1332
3567 Steven Parkes Palo Alto CA 00:35:45 55-59 M 21 1333
2961 Erick Bell Los Angeles CA 00:35:45 50-54 M 44 1334
4868 Camille Sifuentes Los Angeles CA 00:35:46 20-24 F 69 1335
4144 Krissia Molina Paramount CA 00:35:47 25-29 F 114 1336
3780 Judith Cuevas Burbank CA 00:35:48 35-39 F 85 1337
4065 Efren Ochoa Los Angeles CA 00:35:49 40-44 M 55 1338
4064 Emma Ochoa Los Angeles CA 00:35:49 1-9 F 10 1339
4024 Marc Frodyma Los Angeles CA 00:35:50 65-69 M 7 1340
3817 Bradley Grunewald Royal Oak MI 00:35:51 30-34 M 114 1341
3039 Garret Navarro Inglewood CA 00:35:51 10-11 M 20 1342
3037 Hector Navarro Inglewood CA 00:35:51 45-49 M 58 1343
4152 Baxter Dixon San Francisco CA 00:35:51 1-9 M 26 1344
4777 Nick Rish Los Angeles CA 00:35:51 45-49 M 59 1345
3785 Silva Haytayan Downey CA 00:35:52 65-69 F 4 1346
3929 Taylor Grunewald Royal Oak MI 00:35:52 25-29 F 115 1347
4534 Alicia Pharris Los Angeles CA 00:35:54 35-39 F 86 1348
4750 Kathy Calderon Gardena CA 00:35:55 25-29 F 116 1349
2394 Luis Primera Los Angeles CA 00:35:58 25-29 M 111 1350
2234 Zack McGowan Oakland CA 00:35:58 12-13 M 28 1351
4690 Mason Rather Sherman Oaks CA 00:35:59 45-49 M 60 1352
4119 Marivic Lontoc Perry Hall MD 00:35:59 40-44 F 58 1353
4691 Lily Rather Sherman Oaks CA 00:36:00 1-9 F 11 1354
3061 Elizabeth Padilla Los Angeles CA 00:36:00 25-29 F 117 1355
2097 David Cacarillo Los Angeles CA 00:36:00 35-39 M 86 1356
2881 Kelly Millan Glendora CA 00:36:00 20-24 F 70 1357
2873 Alison Vought Valencia CA 00:36:02 35-39 F 87 1358
2880 Michael Valloza Glendora CA 00:36:02 25-29 M 112 1359
4512 Ralphie Giron Long Beach CA 00:36:02 40-44 M 56 1360
2647 Angie Salicrup Monrovia CA 00:36:03 40-44 F 59 1361
3305 Veronica Diaz-Chavez Covina CA 00:36:04 50-54 F 31 1362
3256 Angel Arellano Downey CA 00:36:04 16-19 M 36 1363
3833 Luz Lopez Compton CA 00:36:06 45-49 F 48 1364
2653 Tiffany Emery Los Angeles CA 00:36:07 25-29 F 118 1365
4893 Gabby Barrett Manhattan Beach CA 00:36:09 10-11 F 19 1366
3934 Miabella Chavez Los Angeles CA 00:36:09 16-19 F 27 1367
4738 Erika Casillas Los Angeles CA 00:36:09 20-24 F 71 1368
4891 Dan Barrett Manhattan Beach CA 00:36:10 50-54 M 45 1369
5160 Ayoits Waters Los Angeles CA 00:36:10 25-29 F 119 1370
3190 Lucious Fuller Jr. Los Angeles CA 00:36:11 45-49 M 61 1371
4101 Yemilth Arias Studio City CA 00:36:11 25-29 F 120 1372
4444 Esther Hatkoff Sherman Oaks CA 00:36:12 30-34 F 140 1373
3973 Bernadette Lopez Whittier CA 00:36:12 20-24 F 72 1374
3858 Sabrina Rodriguez San Gabriel CA 00:36:13 30-34 F 141 1375
4896 christian molina San Marino CA 00:36:13 30-34 M 115 1376
2144 Nicolas Eguiguren Los Angeles CA 00:36:15 35-39 M 87 1377
3890 Ivonne Nelson Los Angeles CA 00:36:15 50-54 F 32 1378
2528 Ashley Mejia -- 00:36:16 16-19 F 28 1379
3388 Aidan Elizondo Glendale CA 00:36:16 14-15 M 22 1380
2233 Amy Rabwin Los Angeles CA 00:36:17 35-39 F 88 1381
2926 Sharron Whiteley Culver City CA 00:36:19 45-49 F 49 1382
4895 katie tsang Los Angeles CA 00:36:19 25-29 F 121 1383
3761 Justin Risdon Canyon Country CA 00:36:19 45-49 M 62 1384
4226 Jonas Sautter Los Angeles CA 00:36:20 16-19 M 37 1385
3763 Zane Risdon Canyon Country CA 00:36:20 1-9 M 27 1386
3128 Sheniffer Aldana Los Angeles CA 00:36:20 30-34 F 142 1387
3760 Samantha Risdon Canyon Country CA 00:36:21 10-11 F 20 1388
3570 Terrie Hudson El Monte CA 00:36:21 50-54 F 33 1389
3629 Yanis FELLACHE Marina Del Rey CA 00:36:23 10-11 M 21 1390
2501 Tajh Ariza Porter Ranch CA 00:36:24 10-11 M 22 1391
4227 Andreas Sautter Los Angeles CA 00:36:24 50-54 M 46 1392
4413 James Pedrazzini Santa Monica CA 00:36:24 30-34 M 116 1393
4944 Abby Fischler Los Angeles CA 00:36:26 12-13 F 20 1394
4304 Steffany Wilson Santa Monica CA 00:36:26 25-29 F 122 1395
2845 Leslie Quintanilla Temple City CA 00:36:26 40-44 F 60 1396
4446 Andrea Aldana Los Angeles CA 00:36:27 25-29 F 123 1397
4096 Melaney Torres Los Angeles CA 00:36:28 25-29 F 124 1398
2927 Mayra Gutierrez Los Angeles CA 00:36:29 30-34 F 143 1399
4389 Aspen Chung Chicago IL 00:36:29 1-9 F 12 1400
Notes Pages Download Filter By
  1 2 3 4 5 6 7 8 9 10 11 12 13




Keyword Exact  
Division

Bib First Name Last Name City State Total Time Division Division Place Overall
Not Found